createdAt,value
2023-01-02T00:01:12.768Z,11.139526
2023-01-02T00:04:37.990Z,11.149597
2023-01-02T00:08:03.223Z,11.169739
2023-01-02T00:11:28.476Z,11.210022
2023-01-02T00:14:53.655Z,11.18988
2023-01-02T00:18:18.913Z,11.240234
2023-01-02T00:21:44.156Z,11.240234
2023-01-02T00:25:09.385Z,11.280518
2023-01-02T00:28:34.652Z,11.270447
2023-01-02T00:31:59.878Z,11.290588
2023-01-02T00:35:25.101Z,11.320801
2023-01-02T00:38:50.320Z,11.361084
2023-01-02T00:42:15.551Z,11.391296
2023-01-02T00:45:40.819Z,11.461792
2023-01-02T00:49:06.027Z,11.461792
2023-01-02T00:52:31.261Z,11.492004
2023-01-02T00:55:56.491Z,11.542358
2023-01-02T00:59:21.679Z,11.622925
2023-01-02T01:02:47.017Z,11.612854
2023-01-02T01:06:12.120Z,11.612854
2023-01-02T01:09:37.367Z,11.612854
2023-01-02T01:13:02.590Z,11.622925
2023-01-02T01:16:27.916Z,11.582642
2023-01-02T01:19:53.116Z,11.612854
2023-01-02T01:23:18.341Z,11.612854
2023-01-02T01:26:43.511Z,11.602783
2023-01-02T01:30:08.726Z,11.582642
2023-01-02T01:33:33.957Z,11.572571
2023-01-02T01:36:59.177Z,11.542358
2023-01-02T01:40:24.377Z,11.471863
2023-01-02T01:43:49.610Z,11.471863
2023-01-02T01:47:14.817Z,11.44165
2023-01-02T01:50:40.036Z,11.401367
2023-01-02T01:54:05.234Z,11.421509
2023-01-02T01:57:30.447Z,11.391296
2023-01-02T02:00:55.664Z,11.361084
2023-01-02T02:04:20.807Z,11.351013
2023-01-02T02:07:46.050Z,11.330872
2023-01-02T02:11:11.307Z,11.361084
2023-01-02T02:14:36.533Z,11.290588
2023-01-02T02:18:01.766Z,11.330872
2023-01-02T02:21:26.988Z,11.361084
2023-01-02T02:24:52.179Z,11.330872
2023-01-02T02:28:17.387Z,11.290588
2023-01-02T02:31:42.607Z,11.280518
2023-01-02T02:35:07.834Z,11.320801
2023-01-02T02:38:33.821Z,11.320801
2023-01-02T02:41:59.003Z,11.270447
2023-01-02T02:45:24.280Z,11.320801
2023-01-02T02:48:49.486Z,11.270447
2023-01-02T02:52:14.716Z,11.270447
2023-01-02T02:55:39.950Z,11.220093
2023-01-02T02:59:05.177Z,11.240234
2023-01-02T03:02:30.604Z,11.220093
2023-01-02T03:05:55.577Z,11.240234
2023-01-02T03:09:20.766Z,11.240234
2023-01-02T03:12:46.011Z,11.240234
2023-01-02T03:16:11.375Z,11.270447
2023-01-02T03:19:36.475Z,11.250305
2023-01-02T03:23:01.703Z,11.240234
2023-01-02T03:26:26.892Z,11.169739
2023-01-02T03:29:52.137Z,11.17981
2023-01-02T03:33:17.376Z,11.149597
2023-01-02T03:36:42.632Z,11.220093
2023-01-02T03:40:07.814Z,11.240234
2023-01-02T03:43:33.041Z,11.220093
2023-01-02T03:46:58.287Z,11.240234
2023-01-02T03:50:23.493Z,11.240234
2023-01-02T03:53:48.721Z,11.270447
2023-01-02T03:57:13.910Z,11.250305
2023-01-02T04:00:39.115Z,11.290588
2023-01-02T04:04:04.341Z,11.280518
2023-01-02T04:07:29.611Z,11.220093
2023-01-02T04:10:58.405Z,11.210022
2023-01-02T04:14:20.012Z,11.250305
2023-01-02T04:17:45.258Z,11.18988
2023-01-02T04:21:10.457Z,11.210022
2023-01-02T04:24:35.653Z,11.17981
2023-01-02T04:28:00.895Z,11.210022
2023-01-02T04:31:26.134Z,11.17981
2023-01-02T04:34:51.288Z,11.220093
2023-01-02T04:38:16.461Z,11.240234
2023-01-02T04:41:41.607Z,11.270447
2023-01-02T04:45:06.849Z,11.280518
2023-01-02T04:48:31.972Z,11.330872
2023-01-02T04:51:57.175Z,11.351013
2023-01-02T04:55:22.372Z,11.351013
2023-01-02T04:58:47.587Z,11.290588
2023-01-02T05:02:13.052Z,11.320801
2023-01-02T05:05:37.907Z,11.280518
2023-01-02T05:09:03.079Z,11.280518
2023-01-02T05:12:28.240Z,11.250305
2023-01-02T05:15:53.453Z,11.210022
2023-01-02T05:19:18.627Z,11.17981
2023-01-02T05:22:43.763Z,11.17981
2023-01-02T05:26:08.973Z,11.149597
2023-01-02T05:29:34.209Z,11.089172
2023-01-02T05:32:59.405Z,11.028748
2023-01-02T05:36:24.590Z,11.028748
2023-01-02T05:39:49.721Z,10.998535
2023-01-02T05:43:14.889Z,10.988464
2023-01-02T05:46:40.112Z,10.998535
2023-01-02T05:50:05.323Z,10.988464
2023-01-02T05:53:30.603Z,10.958252
2023-01-02T05:56:55.646Z,10.907898
2023-01-02T06:00:20.835Z,10.907898
2023-01-02T06:03:46.089Z,10.857544
2023-01-02T06:07:11.194Z,10.847473
2023-01-02T06:10:36.407Z,10.756836
2023-01-02T06:14:01.537Z,10.756836
2023-01-02T06:17:26.793Z,10.736694
2023-01-02T06:20:51.944Z,10.706482
2023-01-02T06:24:17.200Z,10.666199
2023-01-02T06:27:42.441Z,10.706482
2023-01-02T06:31:07.718Z,10.756836
2023-01-02T06:34:32.886Z,10.837402
2023-01-02T06:37:58.126Z,10.817261
2023-01-02T06:41:23.357Z,10.847473
2023-01-02T06:44:48.630Z,10.887756
2023-01-02T06:48:13.866Z,10.907898
2023-01-02T06:51:39.146Z,10.917969
2023-01-02T06:55:04.399Z,10.917969
2023-01-02T06:58:29.660Z,10.917969
2023-01-02T07:01:55.035Z,10.93811
2023-01-02T07:05:24.524Z,10.907898
2023-01-02T07:08:45.432Z,10.837402
2023-01-02T07:12:10.660Z,10.776978
2023-01-02T07:15:35.891Z,10.726624
2023-01-02T07:19:01.143Z,10.67627
2023-01-02T07:22:34.735Z,10.666199
2023-01-02T07:25:59.957Z,10.656128
2023-01-02T07:29:25.244Z,10.656128
2023-01-02T07:32:50.469Z,10.635986
2023-01-02T07:36:15.648Z,10.625916
2023-01-02T07:39:40.835Z,10.585632
2023-01-02T07:43:06.040Z,10.545349
2023-01-02T07:46:31.242Z,10.484924
2023-01-02T07:49:56.370Z,10.454712
2023-01-02T07:53:21.605Z,10.444641
2023-01-02T07:56:46.736Z,10.414429
2023-01-02T08:00:11.915Z,10.364075
2023-01-02T08:03:37.120Z,10.364075
2023-01-02T08:07:02.233Z,10.384216
2023-01-02T08:10:27.495Z,10.404358
2023-01-02T08:13:52.634Z,10.454712
2023-01-02T08:17:17.862Z,10.515137
2023-01-02T08:20:43.063Z,10.525208
2023-01-02T08:24:08.323Z,10.605774
2023-01-02T08:27:33.608Z,10.605774
2023-01-02T08:30:58.862Z,10.67627
2023-01-02T08:34:24.057Z,10.706482
2023-01-02T08:37:50.701Z,10.756836
2023-01-02T08:41:14.482Z,10.847473
2023-01-02T08:44:39.667Z,10.877686
2023-01-02T08:48:20.090Z,10.907898
2023-01-02T08:51:30.195Z,10.998535
2023-01-02T08:54:55.606Z,11.018677
2023-01-02T08:58:20.867Z,11.028748
2023-01-02T09:01:46.393Z,11.05896
2023-01-02T09:05:11.414Z,11.139526
2023-01-02T09:08:36.631Z,11.17981
2023-01-02T09:12:01.797Z,11.220093
2023-01-02T09:15:27.092Z,11.18988
2023-01-02T09:18:52.325Z,11.17981
2023-01-02T09:22:17.359Z,11.089172
2023-01-02T09:25:42.509Z,11.038818
2023-01-02T09:29:07.710Z,11.028748
2023-01-02T09:32:32.865Z,11.069031
2023-01-02T09:35:58.070Z,11.069031
2023-01-02T09:39:27.066Z,10.968323
2023-01-02T09:42:48.429Z,10.93811
2023-01-02T09:46:13.730Z,10.958252
2023-01-02T09:49:38.784Z,10.93811
2023-01-02T09:53:03.982Z,10.93811
2023-01-02T09:56:33.542Z,10.917969
2023-01-02T09:59:54.309Z,10.907898
2023-01-02T10:03:19.620Z,10.93811
2023-01-02T10:06:44.704Z,10.988464
2023-01-02T10:10:10.011Z,10.968323
2023-01-02T10:14:08.730Z,10.988464
2023-01-02T10:17:00.436Z,10.968323
2023-01-02T10:20:26.848Z,10.988464
2023-01-02T10:23:52.185Z,11.099243
2023-01-02T10:27:17.546Z,11.18988
2023-01-02T10:30:42.687Z,11.240234
2023-01-02T10:34:07.928Z,11.391296
2023-01-02T10:37:33.135Z,11.461792
2023-01-02T10:40:58.402Z,11.542358
2023-01-02T10:44:23.708Z,11.572571
2023-01-02T10:47:48.955Z,11.622925
2023-01-02T10:51:14.292Z,11.602783
2023-01-02T10:54:42.752Z,11.69342
2023-01-02T10:58:04.713Z,11.763916
2023-01-02T11:01:30.227Z,11.763916
2023-01-02T11:04:55.213Z,11.854553
2023-01-02T11:08:20.462Z,11.955261
2023-01-02T11:11:45.691Z,12.06604
2023-01-02T11:15:10.942Z,12.277527
2023-01-02T11:18:36.199Z,12.31781
2023-01-02T11:22:01.412Z,12.307739
2023-01-02T11:25:26.661Z,12.418518
2023-01-02T11:28:51.922Z,12.529297
2023-01-02T11:32:17.115Z,12.619934
2023-01-02T11:35:42.360Z,12.559509
2023-01-02T11:39:07.576Z,12.589722
2023-01-02T11:42:32.809Z,12.670288
2023-01-02T11:45:58.075Z,12.770996
2023-01-02T11:49:23.338Z,12.851562
2023-01-02T11:52:48.646Z,12.791138
2023-01-02T11:56:13.878Z,12.831421
2023-01-02T11:59:39.130Z,12.791138
2023-01-02T12:03:04.557Z,12.740784
2023-01-02T12:06:29.721Z,12.7005
2023-01-02T12:09:55.118Z,12.640076
2023-01-02T12:13:20.299Z,12.599792
2023-01-02T12:16:45.624Z,12.559509
2023-01-02T12:20:10.881Z,12.499084
2023-01-02T12:23:36.159Z,12.529297
2023-01-02T12:27:01.472Z,12.539368
2023-01-02T12:30:26.716Z,12.56958
2023-01-02T12:33:52.030Z,12.559509
2023-01-02T12:37:17.304Z,12.529297
2023-01-02T12:40:42.613Z,12.56958
2023-01-02T12:44:07.893Z,12.539368
2023-01-02T12:47:33.307Z,12.468872
2023-01-02T12:50:58.581Z,12.519226
2023-01-02T12:54:23.873Z,12.539368
2023-01-02T12:57:49.199Z,12.559509
2023-01-02T13:01:14.596Z,12.559509
2023-01-02T13:04:39.777Z,12.529297
2023-01-02T13:08:05.052Z,12.519226
2023-01-02T13:11:30.304Z,12.559509
2023-01-02T13:14:55.604Z,12.559509
2023-01-02T13:18:22.014Z,12.589722
2023-01-02T13:21:47.259Z,12.559509
2023-01-02T13:25:12.522Z,12.519226
2023-01-02T13:28:37.876Z,12.519226
2023-01-02T13:32:03.220Z,12.499084
2023-01-02T13:35:28.591Z,12.56958
2023-01-02T13:38:53.858Z,12.619934
2023-01-02T13:42:19.170Z,12.589722
2023-01-02T13:45:44.588Z,12.489014
2023-01-02T13:49:09.801Z,12.388306
2023-01-02T13:52:35.164Z,12.287598
2023-01-02T13:56:00.476Z,12.307739
2023-01-02T13:59:41.367Z,12.207031
2023-01-02T14:02:51.232Z,12.126465
2023-01-02T14:06:16.428Z,12.096252
2023-01-02T14:09:41.785Z,12.035828
2023-01-02T14:13:07.064Z,12.015686
2023-01-02T14:16:32.324Z,11.955261
2023-01-02T14:19:57.615Z,11.904907
2023-01-02T14:23:22.895Z,11.854553
2023-01-02T14:26:48.233Z,11.864624
2023-01-02T14:30:13.543Z,11.834412
2023-01-02T15:05:05.405Z,11.784058
2023-01-02T15:08:30.708Z,11.673279
2023-01-02T15:11:56.038Z,11.552429
2023-01-02T15:15:21.375Z,11.582642
2023-01-02T15:18:46.659Z,11.602783
2023-01-02T15:22:12.029Z,11.582642
2023-01-02T15:25:37.199Z,11.522217
2023-01-02T15:29:02.589Z,11.471863
2023-01-02T15:32:27.883Z,11.421509
2023-01-02T15:35:53.261Z,11.43158
2023-01-02T15:39:18.604Z,11.43158
2023-01-02T15:42:44.737Z,11.391296
2023-01-02T15:46:10.048Z,11.351013
2023-01-02T15:49:35.299Z,11.320801
2023-01-02T15:53:00.553Z,11.149597
2023-01-02T15:56:25.878Z,11.109314
2023-01-02T15:59:51.147Z,11.109314
2023-01-02T16:03:16.443Z,11.089172
2023-01-02T16:06:41.692Z,11.109314
2023-01-02T16:10:07.029Z,11.05896
2023-01-02T16:13:32.426Z,11.038818
2023-01-02T16:16:57.795Z,11.038818
2023-01-02T16:20:22.983Z,11.089172
2023-01-02T16:23:48.280Z,11.069031
2023-01-02T16:27:13.558Z,11.028748
2023-01-02T16:30:40.854Z,10.958252
2023-01-02T16:34:04.176Z,10.968323
2023-01-02T16:37:29.518Z,10.968323
2023-01-02T16:40:59.449Z,10.958252
2023-01-02T16:44:20.133Z,10.93811
2023-01-02T16:47:45.527Z,10.877686
2023-01-02T16:51:10.791Z,10.93811
2023-01-02T16:54:36.139Z,11.018677
2023-01-02T16:58:01.454Z,10.958252
2023-01-02T17:01:26.864Z,10.958252
2023-01-02T17:04:52.107Z,10.93811
2023-01-02T17:08:17.365Z,10.958252
2023-01-02T17:11:42.709Z,10.907898
2023-01-02T17:15:08.044Z,10.93811
2023-01-02T17:18:33.423Z,10.887756
2023-01-02T17:21:58.815Z,10.887756
2023-01-02T17:25:24.115Z,10.917969
2023-01-02T17:28:52.314Z,10.988464
2023-01-02T17:32:17.456Z,10.998535
2023-01-02T17:35:42.785Z,10.998535
2023-01-02T17:39:09.740Z,10.988464
2023-01-02T17:42:36.084Z,10.968323
2023-01-02T17:46:22.536Z,10.917969
2023-01-02T17:49:32.869Z,10.958252
2023-01-02T17:52:58.194Z,10.917969
2023-01-02T17:56:23.581Z,10.887756
2023-01-02T17:59:48.954Z,10.837402
2023-01-02T18:03:14.356Z,10.817261
2023-01-02T18:06:39.603Z,10.817261
2023-01-02T18:10:08.304Z,10.877686
2023-01-02T18:13:30.704Z,10.877686
2023-01-02T18:16:55.997Z,10.857544
2023-01-02T18:20:21.686Z,10.847473
2023-01-02T18:23:47.001Z,10.787048
2023-01-02T18:27:12.257Z,10.776978
2023-01-02T18:30:37.621Z,10.776978
2023-01-02T18:34:02.880Z,10.80719
2023-01-02T18:37:28.204Z,10.776978
2023-01-02T18:40:53.517Z,10.80719
2023-01-02T18:44:18.838Z,10.847473
2023-01-02T18:47:44.173Z,10.80719
2023-01-02T18:51:09.482Z,10.877686
2023-01-02T18:54:34.754Z,10.857544
2023-01-02T18:58:00.024Z,10.837402
2023-01-02T19:01:25.412Z,10.726624
2023-01-02T19:04:50.598Z,10.656128
2023-01-02T19:08:15.899Z,10.625916
2023-01-02T19:11:41.171Z,10.585632
2023-01-02T19:15:06.507Z,10.525208
2023-01-02T19:18:31.786Z,10.605774
2023-01-02T19:21:57.160Z,10.595703
2023-01-02T19:25:22.326Z,10.474854
2023-01-02T19:28:47.617Z,10.333862
2023-01-02T19:32:12.875Z,10.30365
2023-01-02T19:35:38.156Z,10.253296
2023-01-02T19:39:04.083Z,10.112305
2023-01-02T19:42:29.308Z,9.991455
2023-01-02T19:45:54.674Z,9.961243
2023-01-02T19:49:19.906Z,9.900818
2023-01-02T19:52:45.164Z,9.840393
2023-01-02T19:56:10.469Z,9.759827
2023-01-02T19:59:40.116Z,9.659119
2023-01-02T20:03:01.233Z,9.598694
2023-01-02T20:06:26.331Z,9.528198
2023-01-02T20:09:51.630Z,9.538269
2023-01-02T20:13:16.979Z,9.508057
2023-01-02T20:16:42.208Z,9.346924
2023-01-02T20:20:07.498Z,9.276428
2023-01-02T20:23:32.804Z,9.17572
2023-01-02T20:26:58.053Z,9.17572
2023-01-02T20:30:25.072Z,9.145508
2023-01-02T20:33:48.631Z,9.165649
2023-01-02T20:37:13.910Z,8.944092
2023-01-02T20:40:39.182Z,8.873596
2023-01-02T20:44:04.479Z,8.893738
2023-01-02T20:47:29.855Z,8.813171
2023-01-02T20:50:55.093Z,8.813171
2023-01-02T20:54:20.360Z,8.712463
2023-01-02T20:57:46.069Z,8.79303
2023-01-02T21:01:10.986Z,8.702393
2023-01-02T21:04:37.140Z,8.772888
2023-01-02T21:08:01.597Z,8.79303
2023-01-02T21:11:26.857Z,8.803101
2023-01-02T21:14:52.123Z,8.873596
2023-01-02T21:18:17.417Z,8.843384
2023-01-02T21:21:42.773Z,8.79303
2023-01-02T21:25:08.015Z,8.732605
2023-01-02T21:28:33.324Z,8.803101
2023-01-02T21:31:58.618Z,8.803101
2023-01-02T21:35:24.129Z,8.803101
2023-01-02T21:38:49.570Z,8.79303
2023-01-02T21:42:14.793Z,8.863525
2023-01-02T21:45:40.046Z,8.873596
2023-01-02T21:49:07.022Z,8.92395
2023-01-02T21:52:32.355Z,8.964233
2023-01-02T21:55:57.621Z,8.893738
2023-01-02T21:59:22.854Z,8.843384
2023-01-02T22:02:48.144Z,8.843384
2023-01-02T22:06:13.403Z,8.913879
2023-01-02T22:09:38.698Z,8.92395
2023-01-02T22:13:04.032Z,8.944092
2023-01-02T22:16:29.416Z,8.944092
2023-01-02T22:19:54.541Z,8.893738
2023-01-02T22:23:19.819Z,8.913879
2023-01-02T22:26:47.096Z,8.762817
2023-01-02T22:30:23.208Z,8.662109
2023-01-02T22:33:37.636Z,8.480835
2023-01-02T22:37:02.891Z,8.370056
2023-01-02T22:40:28.139Z,8.339844
2023-01-02T22:43:53.383Z,8.259277
2023-01-02T22:47:18.646Z,8.118286
2023-01-02T22:50:43.901Z,8.067932
2023-01-02T22:54:09.108Z,8.078003
2023-01-02T22:57:34.341Z,8.098145
2023-01-02T23:00:59.593Z,7.977295
2023-01-02T23:04:25.027Z,7.977295
2023-01-02T23:07:50.247Z,7.977295
2023-01-02T23:11:15.354Z,7.947083
2023-01-02T23:14:40.600Z,7.91687
2023-01-02T23:18:05.822Z,7.896729
2023-01-02T23:21:31.208Z,7.886658
2023-01-02T23:24:56.329Z,7.846375
2023-01-02T23:28:39.649Z,7.745667
2023-01-02T23:31:46.901Z,7.765808
2023-01-02T23:35:12.088Z,7.705383
2023-01-02T23:38:37.356Z,7.6651
2023-01-02T23:42:02.549Z,7.614746
2023-01-02T23:45:27.851Z,7.634888
2023-01-02T23:48:53.059Z,7.705383
2023-01-02T23:52:18.298Z,7.644958
2023-01-02T23:55:43.589Z,7.735596
2023-01-02T23:59:08.818Z,7.735596
